Terminal Aerodrome Forecast
Issued by NWS

Home | Current Version | Previous Version | Text Only | Print | Product List | Glossary On
Versions: 1 2 3 4 5 6 7 8 9 10 11 12 13 14 15 16 17 18 19 20 21 22 23 24 25 26 27 28 29 30 31 32 33 34 35 36 37 38 39
000
FTUS45 KBOU 020211 AAA
TAFAPA
TAF AMD
KAPA 020211Z 0202/0224 15008KT P6SM FEW080 BKN140
     FM020400 03011KT P6SM SCT080 BKN140
     FM020800 06010KT P6SM SCT015 OVC035
     FM021300 07010KT P6SM VCSH SCT015 OVC025
      TEMPO 0214/0218 5SM -RASN BKN015
     FM021800 06010KT 5SM -RASN SCT012 OVC020
     FM022100 02015G22KT 1SM -SN BR SCT005 OVC010=

USA.gov is the U.S. government's official web portal to all federal, state and local government web resources and services.